Terminal Aerodrome Forecast
Issued by NWS Wilmington, OH

Home | Current Version | Previous Version | Text Only | Print | Product List | Glossary On
Versions: 1 2 3 4 5 6 7 8 9 10 11 12 13 14 15 16 17 18
904
FTUS41 KILN 282215 AAA
TAFCMH
TAF AMD
KCMH 282215Z 2822/2918 15006KT P6SM VCTS SCT050CB OVC060
     FM282300 19005KT P6SM SCT050 OVC060
     FM290800 VRB02KT 4SM BR BKN150
     FM291400 24004KT P6SM BKN040=

USA.gov is the U.S. government's official web portal to all federal, state and local government web resources and services.